createdAt,value
2022-12-07T00:00:03.694Z,1.50
2022-12-07T00:01:03.352Z,1.50
2022-12-07T00:02:03.420Z,1.50
2022-12-07T00:03:03.336Z,1.50
2022-12-07T00:04:03.258Z,1.50
2022-12-07T00:05:03.111Z,1.50
2022-12-07T00:06:03.102Z,1.50
2022-12-07T00:07:03.090Z,1.50
2022-12-07T00:08:02.994Z,1.50
2022-12-07T00:09:02.979Z,1.40
2022-12-07T00:10:03.244Z,1.40
2022-12-07T00:11:02.931Z,1.40
2022-12-07T00:12:02.826Z,1.40
2022-12-07T00:13:02.692Z,1.40
2022-12-07T00:14:02.713Z,1.40
2022-12-07T00:15:02.630Z,1.40
2022-12-07T00:16:02.696Z,1.40
2022-12-07T00:17:03.631Z,1.40
2022-12-07T00:18:03.579Z,1.40
2022-12-07T00:19:03.437Z,1.40
2022-12-07T00:20:03.681Z,1.40
2022-12-07T00:21:03.330Z,1.30
2022-12-07T00:22:03.233Z,1.30
2022-12-07T00:23:03.202Z,1.30
2022-12-07T00:24:03.121Z,1.30
2022-12-07T00:25:03.021Z,1.30
2022-12-07T00:26:03.026Z,1.30
2022-12-07T00:27:03.055Z,1.30
2022-12-07T00:28:02.929Z,1.30
2022-12-07T00:29:02.931Z,1.30
2022-12-07T00:30:03.180Z,1.30
2022-12-07T00:31:02.878Z,1.30
2022-12-07T00:32:02.938Z,1.30
2022-12-07T00:33:02.929Z,1.30
2022-12-07T00:34:02.864Z,1.30
2022-12-07T00:35:02.811Z,1.30
2022-12-07T00:36:02.764Z,1.30
2022-12-07T00:37:02.741Z,1.30
2022-12-07T00:38:02.586Z,1.30
2022-12-07T00:39:03.496Z,1.30
2022-12-07T00:40:03.712Z,1.30
2022-12-07T00:41:03.416Z,1.30
2022-12-07T00:42:03.298Z,1.30
2022-12-07T00:43:03.242Z,1.30
2022-12-07T00:44:03.151Z,1.30
2022-12-07T00:45:03.022Z,1.20
2022-12-07T00:46:03.066Z,1.20
2022-12-07T00:47:02.967Z,1.20
2022-12-07T00:48:02.889Z,1.20
2022-12-07T00:49:02.858Z,1.20
2022-12-07T00:50:03.130Z,1.20
2022-12-07T00:51:02.800Z,1.20
2022-12-07T00:52:02.844Z,1.20
2022-12-07T00:53:02.835Z,1.20
2022-12-07T00:54:02.753Z,1.20
2022-12-07T00:55:02.671Z,1.20
2022-12-07T00:56:03.512Z,1.20
2022-12-07T00:57:03.506Z,1.20
2022-12-07T00:58:03.377Z,1.20
2022-12-07T00:59:03.406Z,1.20
2022-12-07T01:00:03.732Z,1.20
2022-12-07T01:01:03.389Z,1.10
2022-12-07T01:02:03.368Z,1.10
2022-12-07T01:03:03.286Z,1.10
2022-12-07T01:04:03.184Z,1.10
2022-12-07T01:05:03.197Z,1.10
2022-12-07T01:06:03.240Z,1.10
2022-12-07T01:07:03.164Z,1.10
2022-12-07T01:08:03.103Z,1.10
2022-12-07T01:09:02.990Z,1.10
2022-12-07T01:10:03.428Z,1.10
2022-12-07T01:11:03.187Z,1.00
2022-12-07T01:12:03.211Z,1.00
2022-12-07T01:13:03.224Z,1.00
2022-12-07T01:14:03.147Z,1.00
2022-12-07T01:15:03.176Z,1.00
2022-12-07T01:16:03.069Z,1.00
2022-12-07T01:17:03.080Z,1.00
2022-12-07T01:18:02.925Z,1.00
2022-12-07T01:19:02.876Z,1.00
2022-12-07T01:20:03.088Z,1.00
2022-12-07T01:21:02.866Z,1.00
2022-12-07T01:22:02.827Z,0.90
2022-12-07T01:23:02.824Z,0.90
2022-12-07T01:24:02.896Z,0.90
2022-12-07T01:25:02.741Z,0.90
2022-12-07T01:26:02.622Z,0.90
2022-12-07T01:27:02.663Z,0.90
2022-12-07T01:28:02.623Z,0.80
2022-12-07T01:29:03.575Z,0.80
2022-12-07T01:30:03.606Z,0.80
2022-12-07T01:31:03.502Z,0.80
2022-12-07T01:32:03.311Z,0.80
2022-12-07T01:33:03.251Z,0.80
2022-12-07T01:34:03.139Z,0.70
2022-12-07T01:35:03.039Z,0.70
2022-12-07T01:36:02.985Z,0.70
2022-12-07T01:37:02.891Z,0.70
2022-12-07T01:38:03.461Z,0.70
2022-12-07T01:39:03.402Z,0.70
2022-12-07T01:40:03.774Z,0.60
2022-12-07T01:41:03.269Z,0.60
2022-12-07T01:42:03.242Z,0.60
2022-12-07T01:43:03.153Z,0.60
2022-12-07T01:44:03.144Z,0.60
2022-12-07T01:45:03.170Z,0.60
2022-12-07T01:46:03.230Z,0.60
2022-12-07T01:47:03.138Z,0.60
2022-12-07T01:48:03.075Z,0.50
2022-12-07T01:49:03.020Z,0.50
2022-12-07T01:50:03.066Z,0.50
2022-12-07T01:51:03.012Z,0.50
2022-12-07T01:52:02.917Z,0.50
2022-12-07T01:53:02.821Z,0.50
2022-12-07T01:54:02.808Z,0.50
2022-12-07T01:55:02.904Z,0.50
2022-12-07T01:56:02.914Z,0.50
2022-12-07T01:57:02.835Z,0.50
2022-12-07T01:58:02.801Z,0.50
2022-12-07T01:59:02.754Z,0.50
2022-12-07T02:00:02.944Z,0.50
2022-12-07T02:01:03.617Z,0.50
2022-12-07T02:02:03.603Z,0.40
2022-12-07T02:03:03.497Z,0.40
2022-12-07T02:04:03.478Z,0.40
2022-12-07T02:05:03.547Z,0.40
2022-12-07T02:06:03.499Z,0.40
2022-12-07T02:07:03.581Z,0.40
2022-12-07T02:08:03.498Z,0.40
2022-12-07T02:09:03.421Z,0.40
2022-12-07T02:10:03.578Z,0.40
2022-12-07T02:11:03.349Z,0.40
2022-12-07T02:12:03.386Z,0.40
2022-12-07T02:13:03.349Z,0.40
2022-12-07T02:14:03.193Z,0.40
2022-12-07T02:15:03.298Z,0.40
2022-12-07T02:16:03.313Z,0.40
2022-12-07T02:17:03.238Z,0.40
2022-12-07T02:18:03.141Z,0.40
2022-12-07T02:19:03.119Z,0.40
2022-12-07T02:20:03.366Z,0.40
2022-12-07T02:21:03.029Z,0.40
2022-12-07T02:22:02.933Z,0.40
2022-12-07T02:23:02.895Z,0.40
2022-12-07T02:24:02.768Z,0.40
2022-12-07T02:25:02.845Z,0.40
2022-12-07T02:26:02.736Z,0.40
2022-12-07T02:27:02.641Z,0.40
2022-12-07T02:28:02.652Z,0.40
2022-12-07T02:29:03.583Z,0.40
2022-12-07T02:30:03.779Z,0.40
2022-12-07T02:31:03.539Z,0.40
2022-12-07T02:32:03.363Z,0.40
2022-12-07T02:33:04.113Z,0.40
2022-12-07T02:34:03.299Z,0.40
2022-12-07T02:35:03.194Z,0.40
2022-12-07T02:36:03.203Z,0.40
2022-12-07T02:37:03.066Z,0.40
2022-12-07T02:38:03.045Z,0.40
2022-12-07T02:39:02.971Z,0.40
2022-12-07T02:40:03.244Z,0.40
2022-12-07T02:41:02.897Z,0.40
2022-12-07T02:42:02.924Z,0.40
2022-12-07T02:43:02.875Z,0.30
2022-12-07T02:44:02.820Z,0.40
2022-12-07T02:45:02.811Z,0.40
2022-12-07T02:46:02.790Z,0.30
2022-12-07T02:47:02.753Z,0.30
2022-12-07T02:48:02.781Z,0.30
2022-12-07T02:49:02.606Z,0.30
2022-12-07T02:50:02.840Z,0.30
2022-12-07T02:51:03.572Z,0.30
2022-12-07T02:52:03.458Z,0.30
2022-12-07T02:53:03.327Z,0.30
2022-12-07T02:54:03.272Z,0.30
2022-12-07T02:55:03.209Z,0.30
2022-12-07T02:56:03.138Z,0.30
2022-12-07T02:57:03.106Z,0.30
2022-12-07T02:58:03.158Z,0.30
2022-12-07T02:59:03.102Z,0.30
2022-12-07T03:00:03.165Z,0.30
2022-12-07T03:01:02.874Z,0.30
2022-12-07T03:02:02.930Z,0.30
2022-12-07T03:03:02.876Z,0.30
2022-12-07T03:04:02.848Z,0.30
2022-12-07T03:05:02.796Z,0.30
2022-12-07T03:06:02.826Z,0.30
2022-12-07T03:07:02.753Z,0.30
2022-12-07T03:08:02.844Z,0.30
2022-12-07T03:09:02.726Z,0.30
2022-12-07T03:10:02.791Z,0.30
2022-12-07T03:11:02.593Z,0.30
2022-12-07T03:12:03.558Z,0.30
2022-12-07T03:13:03.449Z,0.30
2022-12-07T03:14:03.467Z,0.30
2022-12-07T03:15:03.447Z,0.30
2022-12-07T03:16:03.633Z,0.40
2022-12-07T03:17:03.486Z,0.40
2022-12-07T03:18:03.416Z,0.40
2022-12-07T03:19:03.368Z,0.40
2022-12-07T03:20:03.635Z,0.40
2022-12-07T03:21:03.287Z,0.40
2022-12-07T03:22:03.339Z,0.40
2022-12-07T03:23:03.300Z,0.40
2022-12-07T03:24:03.097Z,0.40
2022-12-07T03:25:03.094Z,0.40
2022-12-07T03:26:02.988Z,0.40
2022-12-07T03:27:02.986Z,0.40
2022-12-07T03:28:02.863Z,0.40
2022-12-07T03:29:03.703Z,0.40
2022-12-07T03:30:02.938Z,0.40
2022-12-07T03:31:02.833Z,0.50
2022-12-07T03:32:02.588Z,0.50
2022-12-07T03:33:02.578Z,0.40
2022-12-07T03:34:03.519Z,0.50
2022-12-07T03:35:03.403Z,0.50
2022-12-07T03:36:03.409Z,0.50
2022-12-07T03:37:03.326Z,0.50
2022-12-07T03:38:03.318Z,0.50
2022-12-07T03:39:03.226Z,0.50
2022-12-07T03:40:03.394Z,0.50
2022-12-07T03:41:03.149Z,0.50
2022-12-07T03:42:03.117Z,0.50
2022-12-07T03:43:03.103Z,0.50
2022-12-07T03:44:03.050Z,0.50
2022-12-07T03:45:02.945Z,0.50
2022-12-07T03:46:03.030Z,0.50
2022-12-07T03:47:03.131Z,0.50
2022-12-07T03:48:02.996Z,0.50
2022-12-07T03:49:02.896Z,0.50
2022-12-07T03:50:03.020Z,0.50
2022-12-07T03:51:02.875Z,0.50
2022-12-07T03:52:02.906Z,0.50
2022-12-07T03:53:02.922Z,0.50
2022-12-07T03:54:02.940Z,0.50
2022-12-07T03:55:02.824Z,0.50
2022-12-07T03:56:02.941Z,0.50
2022-12-07T03:57:02.881Z,0.50
2022-12-07T03:58:02.805Z,0.50
2022-12-07T03:59:02.690Z,0.50
2022-12-07T04:00:03.001Z,0.50
2022-12-07T04:01:02.732Z,0.50
2022-12-07T04:02:02.619Z,0.60
2022-12-07T04:03:02.639Z,0.50
2022-12-07T04:04:02.548Z,0.60
2022-12-07T04:05:03.541Z,0.60
2022-12-07T04:06:03.559Z,0.60
2022-12-07T04:07:03.475Z,0.60
2022-12-07T04:08:03.591Z,0.60
2022-12-07T04:09:03.381Z,0.60
2022-12-07T04:10:03.601Z,0.60
2022-12-07T04:11:03.336Z,0.60
2022-12-07T04:12:03.348Z,0.60
2022-12-07T04:13:03.265Z,0.60
2022-12-07T04:14:03.179Z,0.60
2022-12-07T04:15:03.155Z,0.60
2022-12-07T04:16:03.223Z,0.60
2022-12-07T04:17:03.158Z,0.60
2022-12-07T04:18:03.121Z,0.60
2022-12-07T04:19:03.122Z,0.60
2022-12-07T04:20:03.235Z,0.60
2022-12-07T04:21:03.054Z,0.60
2022-12-07T04:22:03.094Z,0.60
2022-12-07T04:23:03.117Z,0.70
2022-12-07T04:24:03.225Z,0.70
2022-12-07T04:25:03.173Z,0.70
2022-12-07T04:26:03.160Z,0.70
2022-12-07T04:27:03.086Z,0.70
2022-12-07T04:28:02.996Z,0.70
2022-12-07T04:29:07.366Z,0.70
2022-12-07T04:30:03.225Z,0.70
2022-12-07T04:31:02.904Z,0.70
2022-12-07T04:32:02.812Z,0.70
2022-12-07T04:33:02.694Z,0.70
2022-12-07T04:34:07.724Z,0.70
2022-12-07T04:35:02.692Z,0.70
2022-12-07T04:36:02.873Z,0.70
2022-12-07T04:37:02.831Z,0.70
2022-12-07T04:38:02.883Z,0.70
2022-12-07T04:39:02.800Z,0.70
2022-12-07T04:40:03.009Z,0.70
2022-12-07T04:41:02.702Z,0.70
2022-12-07T04:42:02.664Z,0.70
2022-12-07T04:43:02.579Z,0.70
2022-12-07T04:44:02.652Z,0.70
2022-12-07T04:45:03.023Z,0.70
2022-12-07T04:46:02.729Z,0.70
2022-12-07T04:47:02.703Z,0.70
2022-12-07T04:48:03.556Z,0.70
2022-12-07T04:49:03.554Z,0.70
2022-12-07T04:50:03.675Z,0.70
2022-12-07T04:51:03.482Z,0.70
2022-12-07T04:52:03.501Z,0.70
2022-12-07T04:53:03.404Z,0.70
2022-12-07T04:54:03.361Z,0.70
2022-12-07T04:55:03.259Z,0.80
2022-12-07T04:56:03.276Z,0.70
2022-12-07T04:57:03.211Z,0.70
2022-12-07T04:58:03.157Z,0.70
2022-12-07T04:59:03.093Z,0.70
2022-12-07T05:00:03.238Z,0.70
2022-12-07T05:01:03.127Z,0.70
2022-12-07T05:02:03.213Z,0.80
2022-12-07T05:03:03.140Z,0.70
2022-12-07T05:04:03.204Z,0.70
2022-12-07T05:05:03.163Z,0.70
2022-12-07T05:06:03.175Z,0.70
2022-12-07T05:07:08.170Z,0.70
2022-12-07T05:08:03.180Z,0.70
2022-12-07T05:09:03.189Z,0.70
2022-12-07T05:10:03.344Z,0.70
2022-12-07T05:11:03.121Z,0.70
2022-12-07T05:12:03.163Z,0.70
2022-12-07T05:13:03.176Z,0.70
2022-12-07T05:14:03.124Z,0.70
2022-12-07T05:15:03.150Z,0.70
2022-12-07T05:16:03.071Z,0.70
2022-12-07T05:17:03.031Z,0.70
2022-12-07T05:18:03.064Z,0.70
2022-12-07T05:19:03.023Z,0.70
2022-12-07T05:20:03.134Z,0.70
2022-12-07T05:21:02.768Z,0.70
2022-12-07T05:22:03.114Z,0.70
2022-12-07T05:23:02.792Z,0.70
2022-12-07T05:24:02.639Z,0.80
2022-12-07T05:25:02.886Z,0.80
2022-12-07T05:26:07.839Z,0.70
2022-12-07T05:27:02.670Z,0.80
2022-12-07T05:28:02.702Z,0.80
2022-12-07T05:29:02.745Z,0.80
2022-12-07T05:30:02.784Z,0.80
2022-12-07T05:31:03.512Z,0.80
2022-12-07T05:32:03.511Z,0.80
2022-12-07T05:33:03.386Z,0.80
2022-12-07T05:34:03.439Z,0.80
2022-12-07T05:35:03.368Z,0.80
2022-12-07T05:36:03.472Z,0.80
2022-12-07T05:37:03.585Z,0.80
2022-12-07T05:38:03.517Z,0.80
2022-12-07T05:39:03.452Z,0.80
2022-12-07T05:40:02.950Z,0.80
2022-12-07T05:41:02.774Z,0.80
2022-12-07T05:42:02.659Z,0.80
2022-12-07T05:43:04.683Z,0.80
2022-12-07T05:44:03.532Z,0.80
2022-12-07T05:45:02.583Z,0.80
2022-12-07T05:46:03.693Z,0.80
2022-12-07T05:47:03.471Z,0.80
2022-12-07T05:48:03.489Z,0.80
2022-12-07T05:49:03.336Z,0.80
2022-12-07T05:50:03.526Z,0.90
2022-12-07T05:51:03.315Z,0.80
2022-12-07T05:52:03.185Z,0.90
2022-12-07T05:53:03.181Z,0.90
2022-12-07T05:54:03.204Z,0.90
2022-12-07T05:55:03.115Z,0.90
2022-12-07T05:56:03.188Z,0.90
2022-12-07T05:57:03.039Z,0.90
2022-12-07T05:58:03.015Z,0.90
2022-12-07T05:59:03.006Z,0.90
2022-12-07T06:00:03.274Z,0.90
2022-12-07T06:01:02.970Z,0.90
2022-12-07T06:02:03.074Z,0.90
2022-12-07T06:03:03.009Z,0.90
2022-12-07T06:04:02.833Z,0.90
2022-12-07T06:05:02.812Z,0.90
2022-12-07T06:06:02.912Z,0.90
2022-12-07T06:07:02.927Z,0.90
2022-12-07T06:08:06.012Z,0.90
2022-12-07T06:09:02.695Z,0.90
2022-12-07T06:10:02.968Z,0.90
2022-12-07T06:11:02.749Z,1.00
2022-12-07T06:12:02.652Z,0.90
2022-12-07T06:13:03.547Z,1.00
2022-12-07T06:14:03.566Z,1.00
2022-12-07T06:15:03.516Z,1.00
2022-12-07T06:16:03.471Z,1.00
2022-12-07T06:17:03.561Z,1.00
2022-12-07T06:18:03.501Z,1.00
2022-12-07T06:19:03.352Z,1.00
2022-12-07T06:20:03.411Z,1.00
2022-12-07T06:21:03.273Z,1.00
2022-12-07T06:22:03.365Z,1.00
2022-12-07T06:23:03.315Z,1.00
2022-12-07T06:24:03.163Z,1.00
2022-12-07T06:25:07.066Z,1.00
2022-12-07T06:26:03.012Z,1.00
2022-12-07T06:27:02.918Z,1.00
2022-12-07T06:28:02.898Z,1.00
2022-12-07T06:29:02.847Z,1.00
2022-12-07T06:30:02.944Z,1.00
2022-12-07T06:31:02.731Z,1.00
2022-12-07T06:32:02.716Z,1.00
2022-12-07T06:33:02.636Z,1.00
2022-12-07T06:34:03.513Z,1.00
2022-12-07T06:35:04.710Z,1.00
2022-12-07T06:36:03.309Z,1.00
2022-12-07T06:37:03.317Z,1.00
2022-12-07T06:38:03.180Z,1.00
2022-12-07T06:39:03.146Z,1.00
2022-12-07T06:40:03.340Z,1.00
2022-12-07T06:41:03.540Z,1.00
2022-12-07T06:42:03.293Z,1.00
2022-12-07T06:43:03.219Z,1.00
2022-12-07T06:44:03.221Z,1.00
2022-12-07T06:45:03.168Z,1.00
2022-12-07T06:46:03.203Z,1.00
2022-12-07T06:47:31.701Z,1.00
2022-12-07T06:48:03.188Z,1.00
2022-12-07T06:49:03.203Z,1.00
2022-12-07T06:50:03.418Z,1.00
2022-12-07T06:51:03.164Z,1.00
2022-12-07T06:52:03.133Z,1.00
2022-12-07T06:53:02.977Z,1.10
2022-12-07T06:54:03.008Z,1.10
2022-12-07T06:55:03.049Z,1.10
2022-12-07T06:56:02.951Z,1.10
2022-12-07T06:57:03.001Z,1.00
2022-12-07T06:58:02.837Z,1.00
2022-12-07T06:59:02.764Z,1.10
2022-12-07T07:00:03.178Z,1.10
2022-12-07T07:01:02.653Z,1.10
2022-12-07T07:02:02.649Z,1.10
2022-12-07T07:03:02.701Z,1.10
2022-12-07T07:04:02.611Z,1.10
2022-12-07T07:05:03.524Z,1.10
2022-12-07T07:06:03.503Z,1.10
2022-12-07T07:07:03.382Z,1.10
2022-12-07T07:08:22.971Z,1.10
2022-12-07T07:09:03.328Z,1.10
2022-12-07T07:10:03.479Z,1.10
2022-12-07T07:11:03.143Z,1.10
2022-12-07T07:12:03.057Z,1.10
2022-12-07T07:13:03.045Z,1.10
2022-12-07T07:14:03.060Z,1.10
2022-12-07T07:15:03.024Z,1.10
2022-12-07T07:16:02.962Z,1.10
2022-12-07T07:17:02.949Z,1.10
2022-12-07T07:18:07.665Z,1.10
2022-12-07T07:19:03.004Z,1.10
2022-12-07T07:20:03.165Z,1.10
2022-12-07T07:21:02.871Z,1.10
2022-12-07T07:22:02.921Z,1.10
2022-12-07T07:23:02.958Z,1.10
2022-12-07T07:24:02.987Z,1.10
2022-12-07T07:25:02.920Z,1.10
2022-12-07T07:26:02.803Z,1.10
2022-12-07T07:27:07.888Z,1.10
2022-12-07T07:28:02.763Z,1.10
2022-12-07T07:29:02.681Z,1.10
2022-12-07T07:30:03.923Z,1.10
2022-12-07T07:31:03.538Z,1.10
2022-12-07T07:32:06.559Z,1.10
2022-12-07T07:34:02.667Z,1.20
2022-12-07T07:35:02.599Z,1.20
2022-12-07T07:36:03.576Z,1.20
2022-12-07T07:37:03.489Z,1.20
2022-12-07T07:38:03.399Z,1.20
2022-12-07T07:39:03.317Z,1.20
2022-12-07T07:40:03.490Z,1.20
2022-12-07T07:41:03.393Z,1.20
2022-12-07T07:42:03.281Z,1.20
2022-12-07T07:43:03.291Z,1.20
2022-12-07T07:44:03.171Z,1.20
2022-12-07T07:45:03.129Z,1.20
2022-12-07T07:46:03.207Z,1.20
2022-12-07T07:47:03.038Z,1.20
2022-12-07T07:48:03.177Z,1.30
2022-12-07T07:49:03.054Z,1.30
2022-12-07T07:50:03.453Z,1.30
2022-12-07T07:51:03.006Z,1.30
2022-12-07T07:52:03.025Z,1.30
2022-12-07T07:53:03.007Z,1.30
2022-12-07T07:54:02.914Z,1.30
2022-12-07T07:55:02.799Z,1.30
2022-12-07T07:56:02.886Z,1.30
2022-12-07T07:57:02.790Z,1.30
2022-12-07T07:58:02.947Z,1.30
2022-12-07T07:59:03.122Z,1.30
2022-12-07T08:00:03.201Z,1.40
2022-12-07T08:01:02.925Z,1.40
2022-12-07T08:02:02.872Z,1.40
2022-12-07T08:03:02.775Z,1.40
2022-12-07T08:04:02.742Z,1.40
2022-12-07T08:05:03.101Z,1.40
2022-12-07T08:06:03.149Z,1.40
2022-12-07T08:07:03.217Z,1.40
2022-12-07T08:08:03.175Z,1.40
2022-12-07T08:09:03.027Z,1.40
2022-12-07T08:10:03.336Z,1.40
2022-12-07T08:11:03.051Z,1.50
2022-12-07T08:12:02.932Z,1.50
2022-12-07T08:13:02.927Z,1.40
2022-12-07T08:14:02.827Z,1.50
2022-12-07T08:15:02.765Z,1.50
2022-12-07T08:16:02.697Z,1.50
2022-12-07T08:17:03.590Z,1.50
2022-12-07T08:18:03.535Z,1.50
2022-12-07T08:19:02.640Z,1.50
2022-12-07T08:20:03.711Z,1.50
2022-12-07T08:21:03.526Z,1.50
2022-12-07T08:22:02.573Z,1.50
2022-12-07T08:23:03.508Z,1.50
2022-12-07T08:24:03.471Z,1.50
2022-12-07T08:25:03.319Z,1.50
2022-12-07T08:26:03.228Z,1.60
2022-12-07T08:27:03.223Z,1.60
2022-12-07T08:28:03.207Z,1.60
2022-12-07T08:29:03.110Z,1.60
2022-12-07T08:30:03.338Z,1.60
2022-12-07T08:31:03.111Z,1.70
2022-12-07T08:32:06.539Z,1.70
2022-12-07T08:33:03.015Z,1.70
2022-12-07T08:34:02.887Z,1.70
2022-12-07T08:35:02.871Z,1.70
2022-12-07T08:36:02.818Z,1.80
2022-12-07T08:37:02.713Z,1.80
2022-12-07T08:38:02.601Z,1.80
2022-12-07T08:39:31.587Z,1.80
2022-12-07T08:40:03.624Z,1.80
2022-12-07T08:41:03.403Z,1.80
2022-12-07T08:42:03.649Z,1.80
2022-12-07T08:43:03.257Z,1.90
2022-12-07T08:44:03.233Z,1.90
2022-12-07T08:45:03.135Z,1.90
2022-12-07T08:46:03.237Z,1.90
2022-12-07T08:47:03.155Z,1.90
2022-12-07T08:48:03.171Z,1.90
2022-12-07T08:49:03.173Z,1.90
2022-12-07T08:50:03.315Z,1.90
2022-12-07T08:51:03.076Z,1.90
2022-12-07T08:52:03.137Z,1.90
2022-12-07T08:53:03.098Z,2.00
2022-12-07T08:54:02.943Z,2.00
2022-12-07T08:55:02.922Z,2.00
2022-12-07T08:56:03.003Z,2.00
2022-12-07T08:57:02.923Z,2.00
2022-12-07T08:58:02.906Z,2.00
2022-12-07T08:59:02.810Z,2.00
2022-12-07T09:00:03.001Z,2.10
2022-12-07T09:01:02.901Z,2.10
2022-12-07T09:02:02.855Z,2.10
2022-12-07T09:03:02.759Z,2.10
2022-12-07T09:04:02.748Z,2.20
2022-12-07T09:05:02.679Z,2.20
2022-12-07T09:06:02.809Z,2.20
2022-12-07T09:07:02.712Z,2.20
2022-12-07T09:08:03.570Z,2.30
2022-12-07T09:09:03.535Z,2.30
2022-12-07T09:10:03.578Z,2.30
2022-12-07T09:11:03.455Z,2.30
2022-12-07T09:12:03.359Z,2.30
2022-12-07T09:13:03.287Z,2.40
2022-12-07T09:14:03.269Z,2.40
2022-12-07T09:15:03.142Z,2.40
2022-12-07T09:16:03.037Z,2.40
2022-12-07T09:17:03.147Z,2.40
2022-12-07T09:18:02.988Z,2.40
2022-12-07T09:19:03.568Z,2.50
2022-12-07T09:20:02.775Z,2.50
2022-12-07T09:21:02.658Z,2.50
2022-12-07T09:22:02.626Z,2.50
2022-12-07T09:23:03.526Z,2.50
2022-12-07T09:24:03.617Z,2.50
2022-12-07T09:25:03.482Z,2.50
2022-12-07T09:26:07.486Z,2.60
2022-12-07T09:27:03.410Z,2.60
2022-12-07T09:28:03.382Z,2.60
2022-12-07T09:29:03.312Z,2.60
2022-12-07T09:30:03.549Z,2.70
2022-12-07T09:31:23.684Z,2.70
2022-12-07T09:32:06.870Z,2.70
2022-12-07T09:33:03.058Z,2.70
2022-12-07T09:34:03.022Z,2.70
2022-12-07T09:35:02.939Z,2.70
2022-12-07T09:36:02.897Z,2.70
2022-12-07T09:37:02.921Z,2.80
2022-12-07T09:38:02.833Z,2.80
2022-12-07T09:39:02.881Z,2.80
2022-12-07T09:40:03.262Z,2.80
2022-12-07T09:41:02.979Z,2.80
2022-12-07T09:42:02.898Z,2.80
2022-12-07T09:43:02.918Z,2.80
2022-12-07T09:44:02.832Z,2.80
2022-12-07T09:45:02.806Z,2.80
2022-12-07T09:46:02.825Z,2.80
2022-12-07T09:47:02.801Z,2.90
2022-12-07T09:48:02.715Z,2.80
2022-12-07T09:49:02.781Z,2.90
2022-12-07T09:50:03.040Z,2.90
2022-12-07T09:51:02.893Z,2.90
2022-12-07T09:52:02.792Z,2.90
2022-12-07T09:53:02.812Z,2.90
2022-12-07T09:54:02.725Z,2.90
2022-12-07T09:55:02.977Z,2.90
2022-12-07T09:56:02.723Z,2.90
2022-12-07T09:57:02.645Z,2.90
2022-12-07T09:58:02.894Z,2.90
2022-12-07T09:59:02.615Z,2.90
2022-12-07T10:00:02.608Z,2.90
2022-12-07T10:01:03.578Z,2.90
2022-12-07T10:02:03.455Z,2.90
2022-12-07T10:03:03.408Z,3.00
2022-12-07T10:04:03.347Z,3.00
2022-12-07T10:05:03.617Z,3.00
2022-12-07T10:06:03.293Z,3.00
2022-12-07T10:07:03.255Z,3.00
2022-12-07T10:08:03.285Z,3.00
2022-12-07T10:09:03.202Z,3.00
2022-12-07T10:10:03.201Z,3.10
2022-12-07T10:11:03.108Z,3.10
2022-12-07T10:12:03.058Z,3.10
2022-12-07T10:13:02.995Z,3.10
2022-12-07T10:14:02.904Z,3.10
2022-12-07T10:15:07.544Z,3.10
2022-12-07T10:16:06.762Z,3.10
2022-12-07T10:17:02.894Z,3.10
2022-12-07T10:18:02.841Z,3.20
2022-12-07T10:19:03.048Z,3.20
2022-12-07T10:20:03.036Z,3.20
2022-12-07T10:21:03.071Z,3.20
2022-12-07T10:22:03.060Z,3.20
2022-12-07T10:23:02.978Z,3.20
2022-12-07T10:24:02.983Z,3.20
2022-12-07T10:25:03.200Z,3.20
2022-12-07T10:26:03.025Z,3.20
2022-12-07T10:27:03.028Z,3.20
2022-12-07T10:28:02.971Z,3.20
2022-12-07T10:29:02.907Z,3.20
2022-12-07T10:30:02.763Z,3.30
2022-12-07T10:31:02.966Z,3.30
2022-12-07T10:32:02.829Z,3.30
2022-12-07T10:33:02.802Z,3.30
2022-12-07T10:34:02.775Z,3.30
2022-12-07T10:35:02.970Z,3.30
2022-12-07T10:36:02.782Z,3.30
2022-12-07T10:37:02.743Z,3.30
2022-12-07T10:38:02.714Z,3.30
2022-12-07T10:39:03.549Z,3.30
2022-12-07T10:40:03.550Z,3.30
2022-12-07T10:41:02.626Z,3.30
2022-12-07T10:42:02.620Z,3.30
2022-12-07T10:43:02.627Z,3.30
2022-12-07T10:44:03.573Z,3.40
2022-12-07T10:45:02.978Z,3.30
2022-12-07T10:46:04.302Z,3.30
2022-12-07T10:47:02.689Z,3.40
2022-12-07T10:48:02.653Z,3.40
2022-12-07T10:49:02.697Z,3.40
2022-12-07T10:50:02.808Z,3.40
2022-12-07T10:51:02.672Z,3.40
2022-12-07T10:52:02.720Z,3.40
2022-12-07T10:53:02.824Z,3.40
2022-12-07T10:54:02.749Z,3.40
2022-12-07T10:55:02.993Z,3.40
2022-12-07T10:56:02.736Z,3.40
2022-12-07T10:57:02.801Z,3.50
2022-12-07T10:58:02.651Z,3.50
2022-12-07T10:59:02.681Z,3.50
2022-12-07T11:00:02.677Z,3.50
2022-12-07T11:01:02.678Z,3.50
2022-12-07T11:02:02.730Z,3.50
2022-12-07T11:03:02.735Z,3.50
2022-12-07T11:04:02.629Z,3.50
2022-12-07T11:05:02.815Z,3.50
2022-12-07T11:06:02.685Z,3.50
2022-12-07T11:07:02.685Z,3.50
2022-12-07T11:08:02.758Z,3.60
2022-12-07T11:09:02.777Z,3.60
2022-12-07T11:10:09.937Z,3.60
2022-12-07T11:11:03.202Z,3.60
2022-12-07T11:12:03.222Z,3.60
2022-12-07T11:13:03.179Z,3.60
2022-12-07T11:14:03.108Z,3.60
2022-12-07T11:15:03.105Z,3.60
2022-12-07T11:16:03.134Z,3.60
2022-12-07T11:17:03.059Z,3.60
2022-12-07T11:18:03.122Z,3.60
2022-12-07T11:19:03.013Z,3.60
2022-12-07T11:20:03.218Z,3.70
2022-12-07T11:21:02.878Z,3.70
2022-12-07T11:22:02.930Z,3.70
2022-12-07T11:23:02.818Z,3.70
2022-12-07T11:24:02.865Z,3.70
2022-12-07T11:25:02.811Z,3.70
2022-12-07T11:26:02.823Z,3.70
2022-12-07T11:27:02.933Z,3.70
2022-12-07T11:28:02.914Z,3.70
2022-12-07T11:29:02.905Z,3.70
2022-12-07T11:30:03.126Z,3.70
2022-12-07T11:31:02.811Z,3.70
2022-12-07T11:32:02.782Z,3.70
2022-12-07T11:33:02.650Z,3.70
2022-12-07T11:34:02.576Z,3.70
2022-12-07T11:35:03.555Z,3.70
2022-12-07T11:36:03.572Z,3.70
2022-12-07T11:37:03.560Z,3.70
2022-12-07T11:38:02.605Z,3.70
2022-12-07T11:39:02.646Z,3.70
2022-12-07T11:40:02.826Z,3.70
2022-12-07T11:41:02.615Z,3.70
2022-12-07T11:42:02.595Z,3.70
2022-12-07T11:43:02.841Z,3.70
2022-12-07T11:44:02.938Z,3.70
2022-12-07T11:45:03.030Z,3.70
2022-12-07T11:46:03.007Z,3.70
2022-12-07T11:47:03.150Z,3.70
2022-12-07T11:48:03.051Z,3.70
2022-12-07T11:49:03.630Z,3.70
2022-12-07T11:50:03.467Z,3.70
2022-12-07T11:51:03.502Z,3.70
2022-12-07T11:52:03.435Z,3.70
2022-12-07T11:53:03.384Z,3.70
2022-12-07T11:54:03.592Z,3.70
2022-12-07T11:55:03.450Z,3.70
2022-12-07T11:56:03.518Z,3.70
2022-12-07T11:57:03.376Z,3.70
2022-12-07T11:58:03.381Z,3.70
2022-12-07T11:59:03.306Z,3.70
2022-12-07T12:00:03.579Z,3.70
2022-12-07T12:01:03.333Z,3.70
2022-12-07T12:02:03.414Z,3.70
2022-12-07T12:03:03.351Z,3.70
2022-12-07T12:04:03.246Z,3.70
2022-12-07T12:05:03.254Z,3.70
2022-12-07T12:06:05.242Z,3.70
2022-12-07T12:19:07.486Z,3.50
2022-12-07T12:20:02.617Z,3.50
2022-12-07T12:21:03.564Z,3.50
2022-12-07T12:27:03.814Z,3.60
2022-12-07T12:28:03.467Z,3.60
2022-12-07T12:31:03.317Z,3.60
2022-12-07T12:33:03.339Z,3.60
2022-12-07T12:39:03.241Z,3.80
2022-12-07T12:45:03.124Z,3.80
2022-12-07T12:46:03.004Z,3.80
2022-12-07T12:47:02.981Z,3.80
2022-12-07T12:48:03.059Z,3.80
2022-12-07T12:50:02.994Z,3.80
2022-12-07T12:50:07.961Z,3.80
2022-12-07T12:52:03.298Z,3.80
2022-12-07T12:54:03.082Z,3.80
2022-12-07T12:55:03.450Z,3.80
2022-12-07T12:56:03.162Z,3.80
2022-12-07T12:58:03.241Z,3.80
2022-12-07T13:00:03.315Z,3.90
2022-12-07T13:02:03.246Z,3.90
2022-12-07T13:04:03.055Z,4.00
2022-12-07T13:06:03.099Z,4.00
2022-12-07T13:07:03.052Z,4.00
2022-12-07T13:08:03.154Z,4.00
2022-12-07T13:09:03.006Z,4.00
2022-12-07T13:10:03.014Z,4.00
2022-12-07T13:11:02.933Z,4.00
2022-12-07T13:12:02.881Z,4.00
2022-12-07T13:13:03.106Z,4.00
2022-12-07T13:14:02.926Z,4.00
2022-12-07T13:15:03.073Z,4.00
2022-12-07T13:16:03.136Z,4.00
2022-12-07T13:17:03.199Z,4.00
2022-12-07T13:18:03.045Z,4.00
2022-12-07T13:19:03.100Z,4.00
2022-12-07T13:20:03.104Z,4.00
2022-12-07T13:21:03.042Z,4.00
2022-12-07T13:22:02.926Z,4.00
2022-12-07T13:23:03.127Z,4.00
2022-12-07T13:24:03.104Z,4.00
2022-12-07T13:25:03.155Z,4.00
2022-12-07T13:26:03.056Z,4.00
2022-12-07T13:27:03.067Z,4.00
2022-12-07T13:28:03.001Z,4.00
2022-12-07T13:29:03.015Z,4.00
2022-12-07T13:30:02.959Z,4.00
2022-12-07T13:31:02.914Z,4.00
2022-12-07T13:32:02.900Z,4.00
2022-12-07T13:33:03.188Z,4.00
2022-12-07T13:34:03.222Z,4.10
2022-12-07T13:35:03.440Z,4.00
2022-12-07T13:36:03.070Z,4.10
2022-12-07T13:37:03.143Z,4.10
2022-12-07T13:38:03.036Z,4.10
2022-12-07T13:39:03.008Z,4.00
2022-12-07T13:40:03.001Z,4.00
2022-12-07T13:41:02.957Z,4.00
2022-12-07T13:42:02.998Z,4.00
2022-12-07T13:43:02.895Z,4.00
2022-12-07T13:44:03.070Z,4.00
2022-12-07T13:45:03.179Z,4.00
2022-12-07T13:46:02.951Z,4.00
2022-12-07T13:47:02.918Z,4.00
2022-12-07T13:48:02.837Z,3.90
2022-12-07T13:49:02.772Z,3.90
2022-12-07T13:50:02.641Z,3.90
2022-12-07T13:51:02.724Z,3.90
2022-12-07T13:52:02.757Z,3.90
2022-12-07T13:53:02.795Z,3.90
2022-12-07T13:54:02.710Z,3.90
2022-12-07T13:55:03.223Z,3.80
2022-12-07T13:56:03.536Z,3.80